Time;durP1;ratioP1;P1;durP2;ratioP2;P2;SDS_P1;SDS_P2;PMS_P1;PMS_P2;Temp;Humidity;BMP_temperature;BMP_pressure;BME280_temperature;BME280_humidity;BME280_pressure;Samples;Min_cycle;Max_cycle;Signal;HPM_P1;HPM_P2
2021/07/19 00:00:13;;;;;;;7.00;3.60;;;;;;;23.51;53.49;101300.19;696769;28;1202;-62
2021/07/19 00:00:35;;;;;;;5.78;3.67;;;;;;;23.50;53.35;101300.44;697303;28;1734;-63
2021/07/19 00:00:56;;;;;;;4.63;3.53;;;;;;;23.50;53.53;101309.53;695193;28;45338;-63
2021/07/19 00:01:17;;;;;;;4.72;3.45;;;;;;;23.50;53.59;101309.53;695495;28;23539;-61
2021/07/19 00:01:38;;;;;;;6.13;3.67;;;;;;;23.50;53.28;101298.50;696949;28;1376;-63
2021/07/19 00:02:00;;;;;;;5.15;3.67;;;;;;;23.51;53.48;101304.84;696418;28;22466;-60
2021/07/19 00:02:21;;;;;;;4.60;3.85;;;;;;;23.49;53.56;101307.84;695359;28;45433;-63
2021/07/19 00:02:42;;;;;;;5.85;3.65;;;;;;;23.49;53.56;101302.34;696776;28;14472;-64
2021/07/19 00:03:05;;;;;;;5.40;3.50;;;;;;;23.48;53.72;101297.09;694470;28;43212;-63
2021/07/19 00:03:27;;;;;;;4.90;3.75;;;;;;;23.49;53.69;101298.75;694259;28;45188;-64
2021/07/19 00:03:48;;;;;;;4.90;3.40;;;;;;;23.48;53.37;101308.09;694425;28;46470;-63
2021/07/19 00:04:09;;;;;;;4.32;3.38;;;;;;;23.49;53.62;101309.78;696218;28;23390;-62
2021/07/19 00:04:31;;;;;;;3.95;3.45;;;;;;;23.48;53.39;101306.22;696430;28;21529;-62
2021/07/19 00:04:52;;;;;;;6.95;3.45;;;;;;;23.46;53.50;101311.13;695911;28;40898;-63
2021/07/19 00:05:15;;;;;;;6.03;3.13;;;;;;;23.46;53.33;101311.13;697480;28;862;-62
2021/07/19 00:05:36;;;;;;;3.35;3.10;;;;;;;23.45;53.11;101306.69;694578;28;70309;-63
2021/07/19 00:05:58;;;;;;;3.55;3.25;;;;;;;23.45;53.21;101306.69;696040;28;1028;-63
2021/07/19 00:06:19;;;;;;;3.97;3.25;;;;;;;23.47;53.21;101317.47;696338;28;23510;-62
2021/07/19 00:06:41;;;;;;;5.65;3.60;;;;;;;23.47;52.75;101323.00;695470;28;22282;-63
2021/07/19 00:07:03;;;;;;;4.05;3.53;;;;;;;23.48;52.96;101313.63;693055;28;44306;-63
2021/07/19 00:07:33;;;;;;;4.15;3.17;;;;;;;23.47;52.50;101306.47;692265;28;61574;-62
2021/07/19 00:07:56;;;;;;;4.00;3.13;;;;;;;23.49;52.25;101312.53;693539;28;21968;-60
2021/07/19 00:08:17;;;;;;;4.03;3.40;;;;;;;23.48;52.38;101319.13;692774;28;45245;-59
2021/07/19 00:08:39;;;;;;;4.13;3.10;;;;;;;23.48;52.45;101310.88;694226;28;1004;-62
2021/07/19 00:09:01;;;;;;;5.88;3.38;;;;;;;23.48;52.13;101310.88;694226;28;1805;-62
2021/07/19 00:09:22;;;;;;;3.38;3.08;;;;;;;23.47;52.13;101315.56;694300;28;898;-62
2021/07/19 00:09:54;;;;;;;3.78;3.35;;;;;;;23.47;52.11;101310.03;690493;28;121860;-62
2021/07/19 00:10:16;;;;;;;4.20;3.00;;;;;;;23.47;52.17;101323.00;692946;28;45278;-62
2021/07/19 00:10:38;;;;;;;3.08;2.88;;;;;;;23.47;51.88;101312.78;692074;28;65320;-62
2021/07/19 00:10:59;;;;;;;3.10;2.80;;;;;;;23.46;52.07;101313.88;693874;28;18691;-63
2021/07/19 00:11:20;;;;;;;3.83;2.83;;;;;;;23.47;51.81;101317.47;693193;28;22362;-62
2021/07/19 00:11:42;;;;;;;5.60;3.00;;;;;;;23.47;51.56;101310.03;693732;28;23497;-60
2021/07/19 00:12:05;;;;;;;3.03;2.80;;;;;;;23.46;51.66;101313.88;691796;28;46301;-60
2021/07/19 00:12:26;;;;;;;5.60;3.28;;;;;;;23.48;51.52;101321.88;691820;28;69192;-64
2021/07/19 00:12:48;;;;;;;4.40;3.30;;;;;;;23.47;51.32;101311.97;693707;28;23483;-60
2021/07/19 00:13:09;;;;;;;4.50;3.00;;;;;;;23.48;51.29;101313.63;693020;28;46527;-62
2021/07/19 00:13:32;;;;;;;4.55;3.40;;;;;;;23.47;51.48;101311.97;694234;28;954;-63
2021/07/19 00:13:54;;;;;;;3.70;2.95;;;;;;;23.46;51.38;101319.38;694424;28;1903;-62
2021/07/19 00:14:15;;;;;;;3.35;2.97;;;;;;;23.46;51.18;101321.31;693676;28;23427;-62
2021/07/19 00:14:40;;;;;;;3.53;2.95;;;;;;;23.47;51.46;101318.31;693302;28;36184;-59
2021/07/19 00:15:03;;;;;;;3.80;3.08;;;;;;;23.47;51.40;101314.72;692502;28;22508;-62
2021/07/19 00:15:28;;;;;;;3.22;2.92;;;;;;;23.46;51.50;101311.13;689603;28;138070;-61
2021/07/19 00:15:50;;;;;;;3.55;3.05;;;;;;;23.46;51.36;101310.28;694007;28;1781;-62
2021/07/19 00:16:12;;;;;;;3.53;3.03;;;;;;;23.45;51.21;101309.47;694117;28;18356;-63
2021/07/19 00:16:35;;;;;;;3.28;2.97;;;;;;;23.48;51.08;101321.88;694373;28;1311;-62
2021/07/19 00:16:56;;;;;;;3.20;2.75;;;;;;;23.47;50.65;101311.97;691359;28;44572;-62
2021/07/19 00:17:19;;;;;;;4.53;2.85;;;;;;;23.46;50.80;101315.81;692992;28;2107;-62
2021/07/19 00:17:50;;;;;;;3.42;2.83;;;;;;;23.49;50.70;101312.53;691065;28;99096;-60
2021/07/19 00:18:12;;;;;;;3.10;2.90;;;;;;;23.48;50.56;101308.09;693027;28;45250;-60
2021/07/19 00:18:33;;;;;;;3.30;2.95;;;;;;;23.48;50.37;101310.88;692961;28;43784;-62
2021/07/19 00:18:54;;;;;;;3.17;2.80;;;;;;;23.49;50.32;101312.53;694491;28;8042;-62
2021/07/19 00:19:15;;;;;;;5.03;2.85;;;;;;;23.48;50.00;101308.97;692665;28;18465;-62
2021/07/19 00:19:37;;;;;;;4.55;3.00;;;;;;;23.48;50.05;101308.09;694543;28;1064;-63
2021/07/19 00:20:00;;;;;;;5.40;2.90;;;;;;;23.49;50.02;101313.38;694457;28;890;-61
2021/07/19 00:20:22;;;;;;;3.65;2.60;;;;;;;23.50;50.20;101314.22;694372;28;895;-62
2021/07/19 00:21:08;;;;;;;4.13;2.70;;;;;;;23.47;49.54;101307.28;690025;28;119486;-62
2021/07/19 00:21:32;;;;;;;4.10;2.88;;;;;;;23.47;49.78;101318.31;691536;28;70299;-63
2021/07/19 00:21:53;;;;;;;2.92;2.65;;;;;;;23.46;49.66;101322.13;692864;28;36978;-62
2021/07/19 00:22:15;;;;;;;3.78;2.85;;;;;;;23.46;49.74;101318.56;693141;28;31737;-61
2021/07/19 00:22:37;;;;;;;3.22;2.95;;;;;;;23.45;49.90;101316.88;693821;28;21505;-60
2021/07/19 00:22:59;;;;;;;4.38;3.00;;;;;;;23.46;49.92;101318.56;692906;28;46359;-62
2021/07/19 00:23:21;;;;;;;3.17;2.80;;;;;;;23.45;49.78;101322.38;693173;28;947;-60
2021/07/19 00:23:42;;;;;;;4.32;2.80;;;;;;;23.45;49.81;101319.63;692923;28;32724;-62
2021/07/19 00:24:05;;;;;;;3.03;2.70;;;;;;;23.45;49.74;101319.63;693914;28;1531;-63
2021/07/19 00:24:27;;;;;;;3.50;2.78;;;;;;;23.44;49.81;101318.81;694445;28;1052;-62
2021/07/19 00:24:49;;;;;;;4.13;2.80;;;;;;;23.43;49.73;101316.28;694546;28;899;-62
2021/07/19 00:25:16;;;;;;;5.63;2.87;;;;;;;23.43;49.78;101317.13;693252;28;1983;-60
2021/07/19 00:25:38;;;;;;;5.35;2.88;;;;;;;23.42;49.73;101320.97;689372;28;138245;-63
2021/07/19 00:26:03;;;;;;;5.18;2.80;;;;;;;23.42;49.88;101317.38;693103;28;39074;-61
2021/07/19 00:26:24;;;;;;;4.28;2.75;;;;;;;23.42;49.86;101325.63;694444;28;1135;-60
2021/07/19 00:26:45;;;;;;;3.30;3.00;;;;;;;23.41;49.83;101319.31;693597;28;23721;-62
2021/07/19 00:27:06;;;;;;;3.95;2.90;;;;;;;23.42;49.65;101329.25;693284;28;46508;-61
2021/07/19 00:27:27;;;;;;;3.90;2.70;;;;;;;23.42;50.00;101323.75;693748;28;6682;-60
2021/07/19 00:27:53;;;;;;;4.05;2.80;;;;;;;23.41;50.00;101322.06;694297;28;935;-62
2021/07/19 00:28:14;;;;;;;3.25;2.70;;;;;;;23.43;49.74;101327.31;689597;28;138101;-60
2021/07/19 00:28:37;;;;;;;5.05;3.00;;;;;;;23.43;49.86;101325.41;693383;28;45262;-61
2021/07/19 00:28:58;;;;;;;5.82;2.88;;;;;;;23.45;50.13;101325.16;694094;28;8209;-60
2021/07/19 00:29:20;;;;;;;4.10;2.65;;;;;;;23.44;49.94;101321.56;693598;28;22486;-59
2021/07/19 00:29:41;;;;;;;4.35;2.90;;;;;;;23.43;49.67;101321.81;693285;28;38085;-60
2021/07/19 00:30:03;;;;;;;4.38;3.05;;;;;;;23.42;49.64;101325.63;693803;28;23494;-60
2021/07/19 00:30:24;;;;;;;3.35;3.08;;;;;;;23.43;49.47;101324.56;692776;28;46765;-62
2021/07/19 00:30:47;;;;;;;3.05;2.65;;;;;;;23.43;49.67;101322.63;694172;28;2110;-60
2021/07/19 00:31:09;;;;;;;3.08;2.80;;;;;;;23.43;49.90;101319.06;692962;28;32349;-62
2021/07/19 00:31:32;;;;;;;4.45;2.80;;;;;;;23.43;49.54;101319.06;692588;28;45219;-59
2021/07/19 00:31:53;;;;;;;3.85;2.72;;;;;;;23.43;49.76;101324.56;692194;28;69442;-62
2021/07/19 00:32:14;;;;;;;3.78;3.03;;;;;;;23.41;49.53;101326.75;694084;28;1709;-61
2021/07/19 00:32:36;;;;;;;4.53;3.25;;;;;;;23.38;49.31;101322.56;693684;28;8234;-62
2021/07/19 00:32:58;;;;;;;4.35;2.92;;;;;;;23.36;49.32;101314.53;694328;28;895;-58
2021/07/19 00:33:27;;;;;;;3.38;2.90;;;;;;;23.34;49.66;101324.97;692141;28;60458;-62
2021/07/19 00:33:48;;;;;;;3.45;3.00;;;;;;;23.34;49.64;101316.72;693525;28;21541;-63
2021/07/19 00:34:10;;;;;;;3.22;2.92;;;;;;;23.34;49.61;101318.66;693572;28;14967;-62
2021/07/19 00:34:32;;;;;;;3.10;2.80;;;;;;;23.33;49.79;101323.31;693467;28;22431;-60
2021/07/19 00:34:53;;;;;;;4.38;3.00;;;;;;;23.32;49.82;101320.78;693034;28;33254;-62
2021/07/19 00:35:14;;;;;;;5.10;3.45;;;;;;;23.32;49.92;101323.53;693595;28;22833;-61
2021/07/19 00:35:35;;;;;;;5.30;3.42;;;;;;;23.32;49.71;101318.03;694064;28;1837;-62
2021/07/19 00:35:56;;;;;;;6.43;3.33;;;;;;;23.31;49.58;101325.47;693160;28;22206;-62
2021/07/19 00:36:18;;;;;;;4.40;3.25;;;;;;;23.31;49.69;101328.22;694429;28;1081;-63
2021/07/19 00:36:39;;;;;;;4.78;3.30;;;;;;;23.31;49.75;101328.22;693056;28;36815;-62
2021/07/19 00:37:01;;;;;;;3.72;3.15;;;;;;;23.29;49.45;101324.91;693454;28;19794;-62
2021/07/19 00:37:22;;;;;;;4.80;3.30;;;;;;;23.29;49.67;101316.63;693012;28;22394;-62
2021/07/19 00:37:44;;;;;;;5.22;3.38;;;;;;;23.30;49.77;101315.53;693373;28;21443;-60
2021/07/19 00:38:07;;;;;;;4.72;3.20;;;;;;;23.30;49.12;101320.22;691251;28;69566;-63
2021/07/19 00:38:28;;;;;;;3.30;3.00;;;;;;;23.28;49.45;101317.72;693524;28;9940;-63
2021/07/19 00:38:51;;;;;;;4.50;3.25;;;;;;;23.26;49.11;101317.13;693563;28;22359;-58
2021/07/19 00:39:13;;;;;;;3.95;3.10;;;;;;;23.25;49.24;101320.97;692528;28;44749;-62
2021/07/19 00:39:34;;;;;;;3.45;3.15;;;;;;;23.25;49.38;101323.72;693388;28;47279;-62
2021/07/19 00:39:55;;;;;;;3.30;3.00;;;;;;;23.25;49.25;101314.63;695954;28;23040;-62
2021/07/19 00:40:18;;;;;;;4.82;3.50;;;;;;;23.23;49.43;101316.75;693937;28;21537;-63
2021/07/19 00:40:40;;;;;;;4.47;3.10;;;;;;;23.22;49.29;101315.94;690336;28;92264;-61
2021/07/19 00:41:01;;;;;;;4.22;3.08;;;;;;;23.23;49.19;101319.53;693665;28;21324;-62
2021/07/19 00:41:23;;;;;;;3.28;3.00;;;;;;;23.21;49.23;101326.13;693624;28;5753;-62
2021/07/19 00:41:44;;;;;;;3.97;3.00;;;;;;;23.21;49.25;101317.88;693973;28;11729;-62
2021/07/19 00:42:06;;;;;;;3.33;3.00;;;;;;;23.21;49.14;101317.00;692966;28;46288;-63
2021/07/19 00:42:28;;;;;;;4.05;3.10;;;;;;;23.19;49.42;101325.53;693021;28;22487;-61
2021/07/19 00:42:50;;;;;;;4.20;3.00;;;;;;;23.19;49.26;101314.50;693390;28;1005;-65
2021/07/19 00:43:11;;;;;;;3.60;3.20;;;;;;;23.19;49.29;101324.69;694260;28;12162;-62
2021/07/19 00:43:32;;;;;;;4.32;3.05;;;;;;;23.20;49.42;101320.88;693680;28;13331;-63
2021/07/19 00:43:55;;;;;;;3.95;3.10;;;;;;;23.19;49.37;101311.75;694056;28;1603;-63
2021/07/19 00:44:17;;;;;;;3.20;2.90;;;;;;;23.19;49.20;101322.78;689380;28;67143;-61
2021/07/19 00:44:38;;;;;;;3.30;3.00;;;;;;;23.18;49.20;101329.38;689559;28;40098;-62
2021/07/19 00:45:00;;;;;;;3.65;3.05;;;;;;;23.19;49.30;101325.53;688676;28;4156;-62
2021/07/19 00:45:26;;;;;;;3.17;2.88;;;;;;;23.19;49.14;101324.69;689902;28;880;-62
2021/07/19 00:45:48;;;;;;;4.63;3.28;;;;;;;23.19;48.89;101328.28;685807;28;111408;-62
2021/07/19 00:46:09;;;;;;;3.97;3.20;;;;;;;23.18;49.14;101323.88;690084;28;46482;-59
2021/07/19 00:46:31;;;;;;;6.15;2.92;;;;;;;23.18;48.79;101323.88;692354;28;1032;-62
2021/07/19 00:46:53;;;;;;;5.18;3.20;;;;;;;23.18;48.88;101326.63;692751;28;21510;-63
2021/07/19 00:47:16;;;;;;;3.97;3.15;;;;;;;23.17;48.84;101319.44;690623;28;58593;-63
2021/07/19 00:47:38;;;;;;;4.57;3.00;;;;;;;23.16;48.97;101326.03;691208;28;69454;-63
2021/07/19 00:48:03;;;;;;;5.45;3.05;;;;;;;23.17;48.71;101329.63;695166;28;7679;-62
2021/07/19 00:48:25;;;;;;;5.25;3.17;;;;;;;23.17;49.04;101332.38;690184;28;136437;-61
2021/07/19 00:48:47;;;;;;;4.65;3.13;;;;;;;23.16;48.91;101331.53;691959;28;21726;-63
2021/07/19 00:49:09;;;;;;;4.00;3.38;;;;;;;23.16;49.16;101326.03;691856;28;39801;-62
2021/07/19 00:49:32;;;;;;;4.32;3.40;;;;;;;23.15;48.81;101326.25;692869;28;44354;-63
2021/07/19 00:49:53;;;;;;;4.50;3.25;;;;;;;23.13;48.67;101329.28;691369;28;79451;-59
2021/07/19 00:50:16;;;;;;;4.63;3.33;;;;;;;23.13;49.00;101332.03;693138;28;20249;-62
2021/07/19 00:50:40;;;;;;;3.78;3.40;;;;;;;23.14;48.92;101330.13;692318;28;1875;-61
2021/07/19 00:51:02;;;;;;;5.68;3.38;;;;;;;23.13;48.84;101325.69;691858;28;69516;-62
2021/07/19 00:51:24;;;;;;;4.15;3.00;;;;;;;23.12;48.90;101330.38;691161;28;69942;-60
2021/07/19 00:51:45;;;;;;;5.63;3.28;;;;;;;23.11;48.99;101327.84;693556;28;22473;-61
2021/07/19 00:52:09;;;;;;;4.20;3.40;;;;;;;23.11;48.94;101333.38;691924;28;70308;-63
2021/07/19 00:52:33;;;;;;;3.95;3.30;;;;;;;23.08;48.79;101331.94;693351;28;37992;-62
2021/07/19 00:52:57;;;;;;;3.95;3.35;;;;;;;23.06;48.84;101325.81;693418;28;18852;-60
2021/07/19 00:53:21;;;;;;;4.22;3.28;;;;;;;23.03;48.91;101327.13;688126;28;100909;-61
2021/07/19 00:53:43;;;;;;;5.47;3.15;;;;;;;23.02;48.93;101324.63;689212;28;69313;-63
2021/07/19 00:54:05;;;;;;;4.03;3.50;;;;;;;23.01;48.95;101328.47;690326;28;46446;-63
2021/07/19 00:54:28;;;;;;;3.47;3.17;;;;;;;23.01;48.91;101326.56;692067;28;998;-63
2021/07/19 00:54:50;;;;;;;3.80;3.40;;;;;;;23.01;48.84;101325.72;687826;28;69460;-59
2021/07/19 00:55:12;;;;;;;3.50;3.20;;;;;;;22.98;48.85;101329.78;689053;28;46248;-62
2021/07/19 00:55:37;;;;;;;3.97;3.50;;;;;;;22.99;48.83;101327.88;689305;28;65648;-62
2021/07/19 00:55:58;;;;;;;3.72;3.40;;;;;;;22.99;48.89;101333.38;692291;28;55381;-64
2021/07/19 00:56:20;;;;;;;5.22;3.60;;;;;;;22.98;48.58;101332.56;693311;28;46742;-61
2021/07/19 00:56:42;;;;;;;3.85;3.40;;;;;;;22.97;48.80;101330.88;694042;28;30313;-62
2021/07/19 00:57:05;;;;;;;3.92;3.33;;;;;;;22.96;48.43;101331.13;694708;28;41952;-59
2021/07/19 00:57:28;;;;;;;6.20;3.30;;;;;;;22.96;48.75;101331.13;692472;28;90148;-60
2021/07/19 00:57:50;;;;;;;4.72;3.20;;;;;;;22.95;48.66;101333.03;696769;28;967;-62
2021/07/19 00:58:14;;;;;;;4.82;3.65;;;;;;;22.96;48.89;101339.38;693826;28;41506;-61
2021/07/19 00:58:37;;;;;;;3.85;3.47;;;;;;;22.97;48.32;101333.63;689239;28;32010;-59
2021/07/19 00:58:59;;;;;;;4.03;3.60;;;;;;;22.97;48.49;101327.28;686870;28;59774;-59
2021/07/19 00:59:25;;;;;;;5.22;3.75;;;;;;;22.98;48.24;101337.22;684445;28;39186;-62
2021/07/19 00:59:49;;;;;;;6.22;3.65;;;;;;;22.97;48.04;101339.13;684720;28;38619;-60
2021/07/19 01:00:11;;;;;;;5.07;3.78;;;;;;;22.96;48.05;101340.22;685505;28;27546;-59
2021/07/19 01:00:40;;;;;;;4.63;3.70;;;;;;;22.96;48.13;101339.38;691362;28;60649;-63
2021/07/19 01:01:02;;;;;;;5.00;3.78;;;;;;;22.95;47.90;101338.56;693806;28;93205;-60
2021/07/19 01:01:25;;;;;;;6.07;3.50;;;;;;;22.95;48.21;101344.06;696094;28;32310;-59
2021/07/19 01:01:48;;;;;;;3.72;3.40;;;;;;;22.97;48.12;101339.13;695610;28;76088;-63
2021/07/19 01:02:09;;;;;;;5.95;3.58;;;;;;;22.96;48.03;101348.50;695922;28;53111;-60
2021/07/19 01:02:35;;;;;;;7.35;3.88;;;;;;;22.94;47.79;101339.63;691760;28;38057;-62
2021/07/19 01:02:59;;;;;;;4.22;3.67;;;;;;;22.95;47.85;101341.31;690405;28;68422;-59
2021/07/19 01:03:22;;;;;;;5.40;3.78;;;;;;;22.95;47.88;101334.97;689809;28;1016;-63
2021/07/19 01:03:45;;;;;;;5.78;3.80;;;;;;;22.94;47.75;101338.78;688758;28;56574;-60
2021/07/19 01:04:08;;;;;;;5.97;3.75;;;;;;;22.94;47.82;101344.31;687831;28;92502;-63
2021/07/19 01:04:32;;;;;;;5.22;4.07;;;;;;;22.92;47.82;101347.31;688741;28;70046;-59
2021/07/19 01:04:55;;;;;;;5.40;4.07;;;;;;;22.92;48.13;101343.72;686999;28;57630;-62
2021/07/19 01:05:17;;;;;;;3.80;3.50;;;;;;;22.92;47.85;101335.47;685968;28;69377;-63
2021/07/19 01:05:47;;;;;;;4.22;3.83;;;;;;;22.92;48.03;101341.78;683488;28;61351;-60
2021/07/19 01:06:09;;;;;;;4.78;3.72;;;;;;;22.91;48.09;101342.03;685431;28;5223;-61
2021/07/19 01:06:32;;;;;;;8.07;3.90;;;;;;;22.90;47.87;101343.97;682799;28;93243;-60
2021/07/19 01:06:56;;;;;;;6.43;3.95;;;;;;;22.88;47.81;101332.34;686724;28;42510;-59
2021/07/19 01:07:20;;;;;;;5.07;3.78;;;;;;;22.87;47.67;101344.44;687646;28;101386;-63
2021/07/19 01:07:44;;;;;;;5.85;3.80;;;;;;;22.88;47.85;101337.84;690074;28;112498;-62
2021/07/19 01:08:06;;;;;;;4.90;3.72;;;;;;;22.86;47.75;101335.34;688807;28;66012;-62
2021/07/19 01:08:31;;;;;;;5.88;3.97;;;;;;;22.85;47.94;101341.94;687565;28;92093;-62
2021/07/19 01:08:55;;;;;;;7.60;4.22;;;;;;;22.84;47.71;101337.50;684466;28;126001;-62
2021/07/19 01:09:18;;;;;;;5.28;4.00;;;;;;;22.84;47.65;101344.94;684761;28;46444;-60
2021/07/19 01:09:40;;;;;;;5.55;4.05;;;;;;;22.83;48.04;101344.09;686559;28;22885;-59
2021/07/19 01:10:06;;;;;;;5.50;3.88;;;;;;;22.83;47.73;101348.78;688736;28;15716;-61
2021/07/19 01:10:27;;;;;;;5.07;3.90;;;;;;;22.83;47.92;101343.25;688866;28;92336;-60
2021/07/19 01:10:50;;;;;;;6.20;3.85;;;;;;;22.80;47.74;101346.50;690563;28;46323;-60
2021/07/19 01:11:13;;;;;;;5.75;3.97;;;;;;;22.79;47.83;101342.06;688879;28;116074;-62
2021/07/19 01:11:34;;;;;;;4.78;3.95;;;;;;;22.78;47.87;101344.00;695145;28;21529;-59
2021/07/19 01:11:56;;;;;;;5.55;3.72;;;;;;;22.78;48.04;101338.47;694330;28;23462;-59
2021/07/19 01:12:18;;;;;;;5.00;3.80;;;;;;;22.78;48.09;101340.41;692708;28;46398;-62
2021/07/19 01:12:49;;;;;;;6.10;3.95;;;;;;;22.78;47.85;101346.75;688099;28;136736;-63
2021/07/19 01:13:10;;;;;;;5.75;3.97;;;;;;;22.78;47.94;101345.91;690058;28;92714;-58
2021/07/19 01:13:32;;;;;;;4.30;3.90;;;;;;;22.77;47.91;101355.25;693314;28;22646;-61
2021/07/19 01:13:53;;;;;;;6.60;4.28;;;;;;;22.76;47.99;101346.16;691004;28;9809;-60
2021/07/19 01:14:16;;;;;;;5.72;4.03;;;;;;;22.76;47.98;101351.66;686303;28;60333;-61
2021/07/19 01:14:38;;;;;;;4.05;3.65;;;;;;;22.76;48.09;101348.91;687871;28;69881;-62
2021/07/19 01:15:08;;;;;;;5.32;3.97;;;;;;;22.73;47.91;101343.91;690996;28;61663;-62
2021/07/19 01:15:30;;;;;;;4.53;4.00;;;;;;;22.74;47.87;101341.97;691024;28;44350;-60
2021/07/19 01:15:58;;;;;;;5.13;3.95;;;;;;;22.74;47.93;101347.47;692888;28;60808;-63
2021/07/19 01:16:21;;;;;;;7.65;4.03;;;;;;;22.71;47.94;101348.81;693708;28;15529;-63
2021/07/19 01:16:45;;;;;;;4.65;4.05;;;;;;;22.70;48.00;101346.31;696580;28;13472;-60
2021/07/19 01:17:07;;;;;;;5.25;3.80;;;;;;;22.70;48.08;101349.06;696364;28;20833;-63
2021/07/19 01:17:28;;;;;;;4.28;3.88;;;;;;;22.69;48.12;101348.19;692985;28;36699;-60
2021/07/19 01:17:51;;;;;;;5.80;3.90;;;;;;;22.68;47.94;101344.63;693463;28;22478;-61
2021/07/19 01:18:14;;;;;;;4.90;3.85;;;;;;;22.67;48.05;101342.94;688679;28;105177;-59
2021/07/19 01:18:35;;;;;;;5.47;3.75;;;;;;;22.66;47.74;101344.03;691791;28;23536;-60
2021/07/19 01:18:58;;;;;;;5.53;4.15;;;;;;;22.65;47.91;101347.88;690775;28;58891;-58
2021/07/19 01:19:21;;;;;;;4.57;4.00;;;;;;;22.65;47.73;101350.63;689780;28;46531;-60
2021/07/19 01:19:44;;;;;;;5.30;3.88;;;;;;;22.65;47.82;101350.63;688479;28;90463;-61
2021/07/19 01:20:07;;;;;;;5.30;3.80;;;;;;;22.65;47.89;101336.84;688819;28;36736;-63
2021/07/19 01:20:33;;;;;;;6.43;4.18;;;;;;;22.67;47.83;101347.63;685080;28;115975;-59
2021/07/19 01:21:25;;;;;;;5.53;4.10;;;;;;;22.68;47.69;101347.38;687222;28;138729;-59
2021/07/19 01:21:57;;;;;;;5.28;3.80;;;;;;;22.67;47.39;101347.63;689895;28;60559;-61
2021/07/19 01:22:59;;;;;;;6.53;3.95;;;;;;;22.66;47.29;101334.94;690387;28;128164;-59
2021/07/19 01:23:33;;;;;;;6.43;4.00;;;;;;;22.65;47.29;101349.78;692995;28;60869;-64
2021/07/19 01:24:10;;;;;;;5.75;4.00;;;;;;;22.63;47.23;101344.53;691487;28;137531;-61
2021/07/19 01:24:42;;;;;;;6.70;4.32;;;;;;;22.63;47.27;101340.91;692093;28;136798;-63
2021/07/19 01:25:18;;;;;;;5.00;3.42;;;;;;;22.62;47.23;101353.84;692642;28;124559;-62
2021/07/19 01:26:08;;;;;;;6.78;3.92;;;;;;;22.61;47.25;101351.34;688755;28;161413;-62
2021/07/19 01:26:46;;;;;;;6.30;4.00;;;;;;;22.61;47.16;101348.59;682740;28;137747;-64
2021/07/19 01:27:25;;;;;;;5.45;4.00;;;;;;;22.59;47.27;101351.59;683006;28;135277;-60
2021/07/19 01:28:03;;;;;;;5.75;3.72;;;;;;;22.58;47.32;101347.16;687075;28;139377;-59
2021/07/19 01:28:31;;;;;;;5.40;3.90;;;;;;;22.58;47.17;101354.59;689967;28;125670;-61
2021/07/19 01:28:53;;;;;;;6.07;4.13;;;;;;;22.57;47.30;101356.50;691121;28;137987;-61
2021/07/19 01:29:15;;;;;;;7.05;3.92;;;;;;;22.56;47.31;101346.56;695067;28;40026;-61
2021/07/19 01:29:37;;;;;;;4.72;3.67;;;;;;;22.56;47.28;101354.00;695038;28;45274;-61
2021/07/19 01:30:02;;;;;;;6.18;3.78;;;;;;;22.54;47.29;101357.00;691857;28;68134;-61
2021/07/19 01:30:24;;;;;;;7.10;3.97;;;;;;;22.53;47.32;101355.31;690409;28;27997;-58
2021/07/19 01:30:46;;;;;;;5.25;4.05;;;;;;;22.49;47.13;101349.47;688080;28;42928;-62
2021/07/19 01:31:13;;;;;;;6.07;4.03;;;;;;;22.50;47.38;101353.03;689250;28;15654;-60
2021/07/19 01:31:38;;;;;;;7.23;4.47;;;;;;;22.49;47.33;101351.34;686073;28;113488;-60
2021/07/19 01:32:00;;;;;;;5.97;4.32;;;;;;;22.49;47.62;101354.97;684424;28;138253;-62
2021/07/19 01:32:22;;;;;;;7.78;4.38;;;;;;;22.48;47.47;101355.19;690934;28;30394;-63
2021/07/19 01:32:46;;;;;;;6.55;4.20;;;;;;;22.48;47.43;101355.19;690893;28;29862;-59
2021/07/19 01:33:09;;;;;;;5.85;4.30;;;;;;;22.45;47.52;101356.50;689726;28;92344;-62
2021/07/19 01:33:32;;;;;;;4.68;3.95;;;;;;;22.46;47.57;101357.34;690958;28;46685;-60
2021/07/19 01:33:57;;;;;;;4.28;3.75;;;;;;;22.45;47.56;101358.44;691324;28;64422;-59
2021/07/19 01:34:20;;;;;;;6.35;4.28;;;;;;;22.43;47.83;101355.06;690936;28;72839;-60
2021/07/19 01:34:43;;;;;;;4.55;4.07;;;;;;;22.44;47.72;101356.75;693703;28;70340;-62
2021/07/19 01:35:08;;;;;;;5.72;4.13;;;;;;;22.41;47.74;101347.06;689841;28;115164;-62
2021/07/19 01:35:41;;;;;;;6.15;3.97;;;;;;;22.41;47.86;101357.22;689321;28;61626;-61
2021/07/19 01:36:03;;;;;;;7.60;4.07;;;;;;;22.39;47.83;101362.16;689355;28;55232;-60
2021/07/19 01:36:29;;;;;;;7.03;4.07;;;;;;;22.40;47.98;101363.81;687238;28;46290;-60
2021/07/19 01:37:13;;;;;;;6.55;3.90;;;;;;;22.40;47.85;101356.41;687129;28;146541;-61
2021/07/19 01:37:54;;;;;;;4.55;3.65;;;;;;;22.37;47.99;101356.88;688274;28;136189;-60
2021/07/19 01:38:28;;;;;;;4.73;3.70;;;;;;;22.35;48.06;101352.69;686611;28;135975;-62
2021/07/19 01:38:52;;;;;;;4.95;3.78;;;;;;;22.33;48.16;101354.84;683920;28;138894;-60
2021/07/19 01:39:14;;;;;;;6.45;3.80;;;;;;;22.32;47.98;101359.53;689990;28;34747;-62
2021/07/19 01:39:37;;;;;;;6.75;4.05;;;;;;;22.31;48.04;101361.44;687706;28;46802;-59
2021/07/19 01:40:00;;;;;;;6.63;4.03;;;;;;;22.31;48.01;101353.19;684894;28;113595;-62
2021/07/19 01:40:24;;;;;;;6.07;4.03;;;;;;;22.30;48.11;101359.78;685086;28;115145;-63
2021/07/19 01:40:47;;;;;;;6.70;3.65;;;;;;;22.29;48.33;101359.97;690745;28;21521;-63
2021/07/19 01:41:11;;;;;;;6.53;3.65;;;;;;;22.28;48.33;101364.63;685539;28;69480;-61
2021/07/19 01:41:33;;;;;;;5.18;3.90;;;;;;;22.29;48.48;101363.56;683085;28;92296;-58
2021/07/19 01:41:55;;;;;;;5.43;3.67;;;;;;;22.28;48.34;101359.13;687337;28;41711;-61
2021/07/19 01:42:17;;;;;;;5.93;4.22;;;;;;;22.29;48.40;101369.06;686884;28;44168;-60
2021/07/19 01:42:39;;;;;;;5.00;4.15;;;;;;;22.29;48.34;101359.97;685588;28;46341;-60
2021/07/19 01:43:03;;;;;;;5.22;4.00;;;;;;;22.27;48.55;101365.72;683523;28;67454;-62
2021/07/19 01:43:26;;;;;;;4.95;3.95;;;;;;;22.27;48.46;101360.22;686218;28;69300;-59
2021/07/19 01:43:49;;;;;;;6.72;4.10;;;;;;;22.26;48.44;101358.53;687981;28;69455;-60
2021/07/19 01:44:16;;;;;;;6.30;4.03;;;;;;;22.26;48.47;101363.22;688217;28;92306;-61
2021/07/19 01:44:39;;;;;;;5.25;3.95;;;;;;;22.24;48.46;101360.69;693648;28;61020;-62
2021/07/19 01:45:04;;;;;;;6.47;4.03;;;;;;;22.23;48.32;101359.00;691325;28;112832;-61
2021/07/19 01:45:26;;;;;;;5.20;3.80;;;;;;;22.23;48.75;101363.69;693443;28;69460;-62
2021/07/19 01:45:52;;;;;;;4.80;3.78;;;;;;;22.21;48.57;101368.56;689967;28;93258;-61
2021/07/19 01:46:17;;;;;;;8.27;3.88;;;;;;;22.20;48.79;101367.75;687588;28;115868;-61
2021/07/19 01:46:40;;;;;;;5.70;3.83;;;;;;;22.20;48.81;101365.00;686265;28;92355;-60
2021/07/19 01:47:01;;;;;;;4.32;3.53;;;;;;;22.20;48.88;101367.75;685884;28;44272;-60
2021/07/19 01:47:24;;;;;;;5.07;3.90;;;;;;;22.20;48.93;101366.91;685964;28;45402;-64
2021/07/19 01:47:47;;;;;;;4.90;3.87;;;;;;;22.20;48.74;101366.91;684227;28;69439;-63
2021/07/19 01:48:10;;;;;;;4.20;3.70;;;;;;;22.20;49.01;101361.41;683333;28;90749;-61
2021/07/19 01:48:34;;;;;;;4.43;3.90;;;;;;;22.20;48.98;101369.69;683993;28;92179;-62
2021/07/19 01:48:57;;;;;;;5.53;3.85;;;;;;;22.17;49.06;101367.41;686943;28;68525;-61
2021/07/19 01:49:21;;;;;;;6.00;3.90;;;;;;;22.17;48.87;101368.22;684838;28;69509;-61
2021/07/19 01:49:43;;;;;;;4.85;3.50;;;;;;;22.16;49.09;101366.53;686979;28;69306;-62
2021/07/19 01:50:07;;;;;;;4.93;3.53;;;;;;;22.14;49.14;101368.69;687724;28;64650;-60
2021/07/19 01:50:48;;;;;;;5.32;3.90;;;;;;;22.15;49.15;101370.38;688715;28;122314;-62
2021/07/19 01:51:14;;;;;;;4.85;4.10;;;;;;;22.15;49.10;101370.38;687409;28;82899;-63
2021/07/19 01:51:47;;;;;;;5.30;3.90;;;;;;;22.16;49.21;101369.28;688953;28;135614;-63
2021/07/19 01:52:08;;;;;;;4.97;3.95;;;;;;;22.15;49.30;101373.16;689291;28;46397;-62
2021/07/19 01:52:30;;;;;;;5.05;3.60;;;;;;;22.16;49.20;101368.47;688687;28;44492;-60